Time,TemperatureF,DewpointF,PressureIn,WindDirection,WindDirectionDegrees,WindSpeedMPH,WindSpeedGustMPH,Humidity,HourlyPrecipIn,Conditions,Clouds,dailyrainin,SoftwareType,DateUTC
2013-01-21 00:03:00,-999.0,-99.9,-100.00,NE,39,2.0,-999.0,-999,-99.99,,,-99.99,,2013-01-21 08:03:00,
2013-01-21 00:14:00,-999.0,-99.9,-100.00,NE,39,2.0,-999.0,-999,-99.99,,,-99.99,,2013-01-21 08:14:00,
2013-01-21 00:23:00,-999.0,-99.9,-100.00,NE,39,2.0,-999.0,-999,-99.99,,,-99.99,,2013-01-21 08:23:00,
2013-01-21 00:33:00,-999.0,-99.9,-100.00,NW,320,5.0,-999.0,-999,-99.99,,,-99.99,,2013-01-21 08:33:00,
2013-01-21 00:53:00,47.0,11.0,-100.00,North,-999,-999.0,-999.0,23,-99.99,,,0.00,,2013-01-21 08:53:00,
2013-01-21 01:12:00,-999.0,-99.9,-100.00,North,11,2.0,-999.0,-999,-99.99,,,-99.99,,2013-01-21 09:12:00,
2013-01-21 01:43:00,-999.0,-99.9,-100.00,North,11,2.0,-999.0,-999,-99.99,,,-99.99,,2013-01-21 09:43:00,
2013-01-21 01:53:00,-999.0,-99.9,-100.00,North,11,2.0,-999.0,-999,-99.99,,,-99.99,,2013-01-21 09:53:00,
2013-01-21 02:03:00,-999.0,-99.9,-100.00,North,11,2.0,-999.0,-999,-99.99,,,-99.99,,2013-01-21 10:03:00,
2013-01-21 04:12:00,-999.0,-99.9,-100.00,NE,39,2.0,-999.0,-999,-99.99,,,-99.99,,2013-01-21 12:12:00,
2013-01-21 04:52:00,43.0,9.0,-100.00,North,-999,-999.0,-999.0,24,-99.99,,,-99.99,,2013-01-21 12:52:00,
2013-01-21 05:03:00,-999.0,-99.9,-100.00,North,11,3.0,-999.0,-999,-99.99,,,-99.99,,2013-01-21 13:03:00,
2013-01-21 07:14:00,-999.0,-99.9,-100.00,North,354,2.0,-999.0,-999,-99.99,,,-99.99,,2013-01-21 15:14:00,
2013-01-21 07:23:00,-999.0,-99.9,-100.00,North,354,2.0,-999.0,-999,-99.99,,,-99.99,,2013-01-21 15:23:00,
2013-01-21 07:33:00,-999.0,-99.9,-100.00,North,354,2.0,-999.0,-999,-99.99,,,-99.99,,2013-01-21 15:33:00,
2013-01-21 08:04:00,-999.0,-99.9,-100.00,WNW,292,3.0,-999.0,-999,-99.99,,,-99.99,,2013-01-21 16:04:00,
2013-01-21 08:13:00,-999.0,-99.9,-100.00,WNW,292,3.0,-999.0,-999,-99.99,,,-99.99,,2013-01-21 16:13:00,
2013-01-21 08:22:00,46.0,8.0,-100.00,North,-999,-999.0,-999.0,20,-99.99,,,-99.99,,2013-01-21 16:22:00,
2013-01-21 08:43:00,46.0,8.0,-100.00,North,-999,-999.0,-999.0,20,-99.99,,,-99.99,,2013-01-21 16:43:00,
2013-01-21 08:53:00,50.0,6.0,-100.00,North,-999,-999.0,-999.0,16,-99.99,,,-99.99,,2013-01-21 16:53:00,
2013-01-21 09:13:00,-999.0,-99.9,-100.00,SE,140,2.0,-999.0,-999,-99.99,,,-99.99,,2013-01-21 17:13:00,
2013-01-21 09:23:00,-999.0,-99.9,-100.00,SE,140,2.0,-999.0,-999,-99.99,,,-99.99,,2013-01-21 17:23:00,
2013-01-21 09:33:00,-999.0,-99.9,-100.00,SE,140,2.0,-999.0,-999,-99.99,,,-99.99,,2013-01-21 17:33:00,
2013-01-21 09:43:00,-999.0,-99.9,-100.00,SE,140,2.0,-999.0,-999,-99.99,,,-99.99,,2013-01-21 17:43:00,
2013-01-21 09:53:00,54.0,-99.9,-100.00,North,-999,-999.0,-999.0,-999,-99.99,,,-99.99,,2013-01-21 17:53:00,
2013-01-21 10:04:00,54.0,-99.9,-100.00,North,-999,-999.0,-999.0,-999,-99.99,,,-99.99,,2013-01-21 18:04:00,
2013-01-21 11:22:00,60.0,8.0,-100.00,North,-999,-999.0,-999.0,12,-99.99,,,-99.99,,2013-01-21 19:22:00,
2013-01-21 11:33:00,-999.0,-99.9,-100.00,SSW,213,3.0,-999.0,-999,-99.99,,,-99.99,,2013-01-21 19:33:00,
2013-01-21 11:43:00,-999.0,-99.9,-100.00,SSW,213,3.0,-999.0,-999,-99.99,,,-99.99,,2013-01-21 19:43:00,
2013-01-21 11:53:00,63.0,-99.9,-100.00,North,-999,-999.0,-999.0,-999,-99.99,,,-99.99,,2013-01-21 19:53:00,
2013-01-21 12:04:00,-999.0,-99.9,-100.00,WNW,286,4.0,-999.0,-999,-99.99,,,-99.99,,2013-01-21 20:04:00,
2013-01-21 13:04:00,-999.0,-99.9,-100.00,NE,39,6.0,-999.0,-999,-99.99,,,-99.99,,2013-01-21 21:04:00,
2013-01-21 13:33:00,-999.0,-99.9,-100.00,NW,320,5.0,-999.0,-999,-99.99,,,-99.99,,2013-01-21 21:33:00,
2013-01-21 13:43:00,-999.0,-99.9,-100.00,NW,320,5.0,-999.0,-999,-99.99,,,-99.99,,2013-01-21 21:43:00,
2013-01-21 13:54:00,-999.0,-99.9,-100.00,NW,320,5.0,-999.0,-999,-99.99,,,-99.99,,2013-01-21 21:54:00,
2013-01-21 14:04:00,-999.0,-99.9,-100.00,NW,320,5.0,-999.0,-999,-99.99,,,-99.99,,2013-01-21 22:04:00,
2013-01-21 14:33:00,-999.0,-99.9,-100.00,WNW,292,4.0,-999.0,-999,-99.99,,,-99.99,,2013-01-21 22:33:00,
2013-01-21 14:43:00,-999.0,-99.9,-100.00,WNW,292,4.0,-999.0,-999,-99.99,,,-99.99,,2013-01-21 22:43:00,
2013-01-21 14:52:00,68.0,2.0,-100.00,North,-999,-999.0,-999.0,7,-99.99,,,-99.99,,2013-01-21 22:52:00,
2013-01-21 15:03:00,68.0,2.0,-100.00,North,-999,-999.0,-999.0,7,-99.99,,,-99.99,,2013-01-21 23:03:00,
2013-01-21 15:12:00,68.0,2.0,-100.00,North,-999,-999.0,-999.0,7,-99.99,,,-99.99,,2013-01-21 23:12:00,
2013-01-21 16:03:00,-999.0,-99.9,-100.00,NNW,343,2.0,-999.0,-999,-99.99,,,-99.99,,2013-01-22 00:03:00,
2013-01-21 16:12:00,-999.0,-99.9,-100.00,NNW,343,2.0,-999.0,-999,-99.99,,,-99.99,,2013-01-22 00:12:00,
2013-01-21 16:23:00,-999.0,-99.9,-100.00,NNW,343,2.0,-999.0,-999,-99.99,,,-99.99,,2013-01-22 00:23:00,
2013-01-21 16:33:00,-999.0,-99.9,-100.00,WNW,303,3.0,-999.0,-999,-99.99,,,-99.99,,2013-01-22 00:33:00,
2013-01-21 16:43:00,-999.0,-99.9,-100.00,WNW,303,3.0,-999.0,-999,-99.99,,,-99.99,,2013-01-22 00:43:00,
2013-01-21 16:53:00,-999.0,-99.9,-100.00,WNW,303,3.0,-999.0,-999,-99.99,,,-99.99,,2013-01-22 00:53:00,
2013-01-21 17:03:00,-999.0,-99.9,-100.00,WNW,303,3.0,-999.0,-999,-99.99,,,-99.99,,2013-01-22 01:03:00,
2013-01-21 17:13:00,65.0,-99.9,-100.00,North,-999,-999.0,-999.0,-999,-99.99,,,-99.99,,2013-01-22 01:13:00,
2013-01-21 17:23:00,62.0,-99.9,-100.00,North,-999,-999.0,-999.0,-999,-99.99,,,-99.99,,2013-01-22 01:23:00,
2013-01-21 17:33:00,62.0,-99.9,-100.00,North,-999,-999.0,-999.0,-999,-99.99,,,-99.99,,2013-01-22 01:33:00,
2013-01-21 17:43:00,62.0,-99.9,-100.00,North,-999,-999.0,-999.0,-999,-99.99,,,-99.99,,2013-01-22 01:43:00,
2013-01-21 17:52:00,58.0,8.0,-100.00,North,-999,-999.0,-999.0,13,-99.99,,,-99.99,,2013-01-22 01:52:00,
2013-01-21 18:03:00,-999.0,-99.9,-100.00,ENE,78,2.0,-999.0,-999,-99.99,,,-99.99,,2013-01-22 02:03:00,
2013-01-21 19:43:00,-999.0,-99.9,-100.00,North,354,3.0,-999.0,-999,-99.99,,,-99.99,,2013-01-22 03:43:00,
2013-01-21 20:22:00,53.0,12.0,-100.00,North,-999,-999.0,-999.0,18,-99.99,,,-99.99,,2013-01-22 04:22:00,
2013-01-21 20:32:00,53.0,12.0,-100.00,North,-999,-999.0,-999.0,18,-99.99,,,-99.99,,2013-01-22 04:32:00,
2013-01-21 20:42:00,53.0,12.0,-100.00,North,-999,-999.0,-999.0,18,-99.99,,,-99.99,,2013-01-22 04:42:00,
2013-01-21 22:12:00,-999.0,-99.9,-100.00,NNE,33,4.0,-999.0,-999,-99.99,,,-99.99,,2013-01-22 06:12:00,
2013-01-21 22:43:00,52.0,-99.9,-100.00,North,-999,-999.0,-999.0,-999,-99.99,,,-99.99,,2013-01-22 06:43:00,
2013-01-21 22:53:00,-999.0,-99.9,-100.00,NE,39,4.0,-999.0,-999,-99.99,,,-99.99,,2013-01-22 06:53:00,
2013-01-21 23:03:00,-999.0,-99.9,-100.00,NE,39,4.0,-999.0,-999,-99.99,,,-99.99,,2013-01-22 07:03:00,
2013-01-21 23:12:00,-999.0,-99.9,-100.00,NE,39,4.0,-999.0,-999,-99.99,,,-99.99,,2013-01-22 07:12:00,
2013-01-21 23:22:00,-999.0,-99.9,-100.00,NE,39,4.0,-999.0,-999,-99.99,,,-99.99,,2013-01-22 07:22:00,
2013-01-21 23:33:00,47.0,8.0,-100.00,North,-999,-999.0,-999.0,20,-99.99,,,-99.99,,2013-01-22 07:33:00,
2013-01-21 23:43:00,47.0,8.0,-100.00,North,-999,-999.0,-999.0,20,-99.99,,,-99.99,,2013-01-22 07:43:00,